Qalandiyah, West Bank
Current Conditions -  °F | °C
As of 12:20 AM on Tuesday 21 Oct 2014 (Local Time) from LLBG Reporting Station
Clear Clear  
Wind Chill: 64°   Ceiling: Unl
Heat Index: 64°   Visibility: 6mi
Dew Point: 50°   Wind: 3mph
Humidity: 59%   Direction: NA
Pressure: 29.94"   Gusts: NA
Location:  31.8°N, 35.25°E
Report Text: LLBG 202120Z VRB03KT CAVOK 18/10 Q1014 NOSIG RMK FEW060
Loading
Personal Weather Stations






























Interactive Weather Map
Tropical Storm Tracking
New forecast layout! Learn more

10-Day Weather Forecast

Advertisements
Track Severe Weather on mobile